aviador You're here:

K4I3 Decoded Metar

in _UNIDENTIFIED
Report Time2018-07-22 16:04:00
UTC Time2018-07-22 16:30:35
Flight Rules mvfr MVFR
Wind360° at 04 kt
Visibility9999 m
Phenomena:N/A
Clouds:Overcast 016 Hf
Expected CloudBase > 1,200 ft AGL from Temp-Dew spread
Ceiling1,600 ft
Temp22°C (ISA +9)
Dew Point19°C (83% RH)
QNH1009 hPa
Density Alt2,710 ft
Elevation1,191 ft
Report Wrong Elevation
Raw Report
K4I3 221604Z AUTO 36004KT 10SM OVC016 22/19 A2979 RMK AO2=

Extra information for K4I3:More info

Metar Taf Metar & Taf Last 4 Metars F.Rules Stats Wind Profile Meteogram Temp Stats Metar ALERT Operation Metar Decoded Social comments